Time;durP1;ratioP1;P1;durP2;ratioP2;P2;SDS_P1;SDS_P2;PMS_P1;PMS_P2;Temp;Humidity;BMP_temperature;BMP_pressure;BME280_temperature;BME280_humidity;BME280_pressure;Samples;Min_cycle;Max_cycle;Signal;HPM_P1;HPM_P2
2022/05/07 00:03:58;;;;;;;13.67;12.50;;;17.50;42.60;;;;;;10363722;28;20234;-74
2022/05/07 00:09:02;;;;;;;12.43;11.53;;;17.50;43.00;;;;;;10369326;28;20272;-74
2022/05/07 00:14:05;;;;;;;12.57;11.67;;;17.50;42.70;;;;;;10371062;28;20770;-74
2022/05/07 00:19:10;;;;;;;12.43;11.43;;;17.50;42.70;;;;;;10370925;28;20738;-73
2022/05/07 00:24:13;;;;;;;11.47;10.57;;;17.50;43.00;;;;;;10370467;28;20299;-74
2022/05/07 00:29:16;;;;;;;11.90;10.93;;;17.50;42.70;;;;;;10370846;28;20230;-74
2022/05/07 00:34:21;;;;;;;11.83;10.93;;;17.50;42.70;;;;;;10370608;28;20258;-74
2022/05/07 00:39:25;;;;;;;13.13;11.97;;;17.50;43.00;;;;;;10370146;28;20233;-74
2022/05/07 00:44:29;;;;;;;13.93;12.83;;;17.50;42.70;;;;;;10369218;28;20240;-74
2022/05/07 00:49:33;;;;;;;13.13;12.03;;;17.50;42.80;;;;;;10369697;28;20314;-74
2022/05/07 00:54:38;;;;;;;12.40;11.43;;;17.40;43.10;;;;;;10369340;28;20242;-74
2022/05/07 00:59:41;;;;;;;13.30;12.30;;;17.40;42.80;;;;;;10369267;28;20230;-74
2022/05/07 01:04:46;;;;;;;12.23;11.30;;;17.40;43.00;;;;;;10373689;28;20238;-74
2022/05/07 01:09:50;;;;;;;10.70;9.90;;;17.40;43.20;;;;;;10368940;28;20237;-74
2022/05/07 01:14:56;;;;;;;11.77;10.90;;;17.40;43.00;;;;;;10368599;28;20265;-74
2022/05/07 01:20:01;;;;;;;13.30;12.30;;;17.40;43.20;;;;;;10368272;28;20554;-73
2022/05/07 01:25:08;;;;;;;13.20;12.20;;;17.40;43.00;;;;;;10368224;28;20377;-74
2022/05/07 01:30:12;;;;;;;13.97;12.63;;;17.30;43.00;;;;;;10368584;28;20230;-74
2022/05/07 01:35:15;;;;;;;13.50;12.40;;;17.30;42.60;;;;;;10368193;28;20605;-74
2022/05/07 01:40:20;;;;;;;13.53;12.37;;;17.30;42.50;;;;;;10367814;28;20246;-74
2022/05/07 01:45:23;;;;;;;13.50;12.40;;;17.20;42.70;;;;;;10367343;28;20223;-74
2022/05/07 01:50:27;;;;;;;10.97;10.20;;;17.10;42.50;;;;;;10367329;28;20242;-74
2022/05/07 01:55:32;;;;;;;13.33;12.27;;;17.10;42.40;;;;;;10367583;28;20241;-74
2022/05/07 02:00:35;;;;;;;13.23;12.23;;;17.00;42.60;;;;;;10367128;28;20248;-74
2022/05/07 02:05:39;;;;;;;12.80;11.77;;;17.00;42.60;;;;;;10366691;28;20258;-73
2022/05/07 02:10:43;;;;;;;13.53;12.43;;;17.00;42.40;;;;;;10366587;28;20663;-74
2022/05/07 02:15:46;;;;;;;11.90;10.90;;;16.90;42.40;;;;;;10366424;28;20260;-74
2022/05/07 02:20:50;;;;;;;12.47;11.53;;;16.80;42.30;;;;;;10366047;28;20341;-74
2022/05/07 02:25:55;;;;;;;13.23;12.13;;;16.80;42.40;;;;;;10366499;28;20233;-74
2022/05/07 02:30:58;;;;;;;12.50;11.40;;;16.70;42.60;;;;;;10365519;28;20372;-74
2022/05/07 02:36:01;;;;;;;12.83;11.73;;;16.70;42.50;;;;;;10365593;28;20238;-74
2022/05/07 02:46:26;;;;;;;13.67;12.67;;;16.60;42.80;;;;;;10365069;28;20237;-74
2022/05/07 02:51:30;;;;;;;11.43;10.53;;;16.60;42.70;;;;;;10365188;28;20523;-74
2022/05/07 02:56:35;;;;;;;12.43;11.43;;;16.60;42.80;;;;;;10399830;28;20233;-73
2022/05/07 03:01:41;;;;;;;13.47;12.37;;;16.60;43.10;;;;;;10398863;28;20240;-73
2022/05/07 03:06:44;;;;;;;12.10;11.10;;;16.60;42.90;;;;;;10364777;28;20230;-74
2022/05/07 03:11:49;;;;;;;10.43;9.63;;;16.60;42.80;;;;;;10364953;28;20731;-74
2022/05/07 03:16:53;;;;;;;10.20;9.40;;;16.60;42.90;;;;;;10364717;28;20225;-73
2022/05/07 03:21:56;;;;;;;12.23;11.33;;;16.60;42.60;;;;;;10364375;28;20688;-73
2022/05/07 03:27:02;;;;;;;11.70;10.80;;;16.60;42.70;;;;;;10364205;28;20230;-74
2022/05/07 03:32:06;;;;;;;12.40;11.43;;;16.60;42.90;;;;;;10363771;28;20226;-74
2022/05/07 03:37:16;;;;;;;11.23;10.43;;;16.50;42.80;;;;;;10364565;28;20313;-74
2022/05/07 03:42:21;;;;;;;12.63;11.53;;;16.50;42.80;;;;;;10334217;28;20611;-73
2022/05/07 03:47:24;;;;;;;11.20;10.40;;;16.50;43.20;;;;;;10342237;28;20691;-74
2022/05/07 03:57:49;;;;;;;12.23;11.33;;;16.50;43.00;;;;;;10347175;28;20623;-74
2022/05/07 04:02:53;;;;;;;11.87;10.97;;;16.50;43.30;;;;;;10330807;28;20238;-74
2022/05/07 04:07:56;;;;;;;11.10;10.10;;;16.50;43.00;;;;;;10331342;28;20259;-74
2022/05/07 04:13:01;;;;;;;9.00;8.33;;;16.50;42.90;;;;;;10342546;28;20246;-74
2022/05/07 04:18:05;;;;;;;9.03;8.33;;;16.40;43.10;;;;;;10370908;28;20698;-74
2022/05/07 04:23:08;;;;;;;10.80;10.00;;;16.50;43.00;;;;;;10371036;28;20226;-74
2022/05/07 04:28:15;;;;;;;10.40;9.70;;;16.50;43.10;;;;;;10370887;28;20253;-74
2022/05/07 04:33:18;;;;;;;10.10;9.33;;;16.50;43.30;;;;;;10370464;28;20341;-74
2022/05/07 04:38:21;;;;;;;12.10;11.20;;;16.40;43.00;;;;;;10370248;28;20766;-74
2022/05/07 04:43:26;;;;;;;12.63;11.73;;;16.50;43.10;;;;;;10370205;28;20237;-74
2022/05/07 04:48:29;;;;;;;11.70;10.80;;;16.50;43.40;;;;;;10369326;28;20230;-74
2022/05/07 04:53:33;;;;;;;12.17;11.27;;;16.50;43.20;;;;;;10368867;28;20276;-74
2022/05/07 04:58:38;;;;;;;10.90;10.07;;;16.50;43.20;;;;;;10369132;28;20725;-74
2022/05/07 05:03:41;;;;;;;11.83;10.93;;;16.50;43.30;;;;;;10369391;28;20242;-73
2022/05/07 05:08:44;;;;;;;11.43;10.60;;;16.50;43.20;;;;;;10369158;28;20228;-74
2022/05/07 05:13:48;;;;;;;11.77;10.87;;;16.50;43.40;;;;;;10368862;28;20241;-75
2022/05/07 05:18:52;;;;;;;11.50;10.63;;;16.40;43.80;;;;;;10368511;28;20253;-74
2022/05/07 05:23:55;;;;;;;13.13;12.17;;;16.40;43.60;;;;;;10368333;28;20245;-74
2022/05/07 05:28:59;;;;;;;13.73;12.63;;;16.40;43.80;;;;;;10368367;28;20230;-74
2022/05/07 05:34:02;;;;;;;12.93;11.93;;;16.50;44.30;;;;;;10367856;28;20234;-74
2022/05/07 05:39:07;;;;;;;14.60;13.50;;;16.50;44.10;;;;;;10368045;28;20234;-74
2022/05/07 05:44:11;;;;;;;14.03;12.93;;;16.50;44.10;;;;;;10367029;28;20269;-74
2022/05/07 05:49:14;;;;;;;12.77;11.77;;;16.50;44.50;;;;;;10367452;28;20718;-74
2022/05/07 05:54:18;;;;;;;15.10;13.90;;;16.60;44.30;;;;;;10367277;28;20242;-74
2022/05/07 05:59:22;;;;;;;15.33;14.07;;;16.60;44.40;;;;;;10366965;28;20804;-73
2022/05/07 06:04:25;;;;;;;14.93;13.73;;;16.70;44.80;;;;;;10365975;28;20235;-74
2022/05/07 06:09:29;;;;;;;15.13;13.73;;;16.70;44.60;;;;;;10366717;28;20230;-74
2022/05/07 06:14:33;;;;;;;15.20;14.07;;;16.80;44.50;;;;;;10366330;28;20240;-74
2022/05/07 06:19:36;;;;;;;14.83;13.63;;;16.80;44.70;;;;;;10366157;28;20241;-74
2022/05/07 06:30:02;;;;;;;13.97;12.83;;;16.80;44.00;;;;;;10366044;28;20240;-74
2022/05/07 06:35:07;;;;;;;14.10;12.90;;;16.80;44.10;;;;;;10365392;28;20605;-73
2022/05/07 06:40:11;;;;;;;14.87;13.67;;;16.80;44.00;;;;;;10365554;28;20234;-74
2022/05/07 06:45:16;;;;;;;14.00;12.90;;;16.80;43.90;;;;;;10365172;28;20238;-73
2022/05/07 06:50:19;;;;;;;14.43;13.23;;;16.70;43.80;;;;;;10365221;28;20626;-74
2022/05/07 06:55:22;;;;;;;13.53;12.23;;;16.80;43.70;;;;;;10365164;28;20313;-74
2022/05/07 07:00:27;;;;;;;13.93;12.83;;;16.80;43.70;;;;;;10349028;28;20227;-73
2022/05/07 07:05:30;;;;;;;15.23;13.93;;;16.80;43.90;;;;;;10338506;28;20236;-74
2022/05/07 07:10:33;;;;;;;14.20;12.90;;;16.80;43.70;;;;;;10356568;28;20230;-74
2022/05/07 07:15:40;;;;;;;13.70;12.70;;;16.80;43.80;;;;;;10361115;28;20234;-73
2022/05/07 07:20:44;;;;;;;13.87;12.67;;;16.80;44.00;;;;;;10364237;28;20234;-74
2022/05/07 07:25:47;;;;;;;13.50;12.33;;;16.80;43.90;;;;;;10363852;28;20241;-74
2022/05/07 07:30:52;;;;;;;14.60;13.40;;;16.80;43.90;;;;;;10348757;28;20263;-73
2022/05/07 07:35:55;;;;;;;14.40;13.20;;;16.90;44.10;;;;;;10358226;28;20225;-74
2022/05/07 07:41:01;;;;;;;12.63;11.73;;;16.90;43.90;;;;;;10361901;28;20225;-74
2022/05/07 07:51:26;;;;;;;13.33;12.33;;;16.90;43.80;;;;;;10359666;28;20276;-74
2022/05/07 07:56:29;;;;;;;12.93;11.63;;;16.80;43.80;;;;;;10362310;28;20883;-74
2022/05/07 08:01:34;;;;;;;13.43;12.23;;;16.90;43.90;;;;;;10354186;28;20230;-75
2022/05/07 08:06:37;;;;;;;12.97;11.90;;;17.00;44.00;;;;;;10357342;28;20241;-74
2022/05/07 08:11:47;;;;;;;13.70;12.40;;;17.00;43.80;;;;;;10355216;28;20746;-76
2022/05/07 08:16:51;;;;;;;13.90;12.80;;;17.00;43.80;;;;;;10360522;28;20233;-73
2022/05/07 08:21:55;;;;;;;13.27;12.17;;;17.10;43.80;;;;;;10354216;28;20238;-75
2022/05/07 08:26:58;;;;;;;12.47;11.47;;;17.10;43.80;;;;;;10350678;28;20683;-73
2022/05/07 08:32:02;;;;;;;12.70;11.60;;;17.10;43.80;;;;;;10363964;28;20236;-76
2022/05/07 08:37:06;;;;;;;13.80;12.70;;;17.20;43.90;;;;;;10356878;28;20214;-75
2022/05/07 08:42:09;;;;;;;12.77;11.63;;;17.30;43.80;;;;;;10363953;28;20226;-75
2022/05/07 08:47:14;;;;;;;12.63;11.63;;;17.40;44.10;;;;;;10368757;28;20233;-75
2022/05/07 08:52:17;;;;;;;12.90;11.80;;;17.40;43.90;;;;;;10367125;28;20749;-73
2022/05/07 08:57:20;;;;;;;13.57;12.43;;;17.50;43.90;;;;;;10366863;28;20233;-73
2022/05/07 09:02:25;;;;;;;12.30;11.30;;;17.60;43.80;;;;;;10357138;28;20234;-74
2022/05/07 09:07:28;;;;;;;12.97;11.87;;;17.70;44.10;;;;;;10359977;28;20230;-74
2022/05/07 09:12:31;;;;;;;12.57;11.57;;;17.90;44.20;;;;;;10367800;28;20271;-76
2022/05/07 09:17:37;;;;;;;12.77;11.80;;;18.00;44.00;;;;;;10358531;28;20227;-73
2022/05/07 09:22:51;;;;;;;13.50;12.30;;;18.10;44.00;;;;;;10361074;28;20238;-74
2022/05/07 09:27:56;;;;;;;12.97;11.93;;;18.20;43.80;;;;;;10348305;28;20230;-74
2022/05/07 09:33:01;;;;;;;11.90;10.90;;;18.40;43.90;;;;;;10357830;28;20218;-74
2022/05/07 09:38:05;;;;;;;11.77;10.87;;;18.50;44.00;;;;;;10355836;28;20230;-73
2022/05/07 09:43:10;;;;;;;12.20;11.20;;;18.70;43.90;;;;;;10360060;28;20733;-72
2022/05/07 09:48:17;;;;;;;10.60;9.70;;;18.80;43.90;;;;;;10362011;28;20321;-76
2022/05/07 09:58:44;;;;;;;10.27;9.47;;;19.20;43.60;;;;;;10358813;28;20222;-74
2022/05/07 10:04:02;;;;;;;10.20;9.50;;;19.30;43.00;;;;;;10361694;28;20301;-73
2022/05/07 10:09:20;;;;;;;10.10;9.30;;;19.40;43.00;;;;;;10358596;28;20328;-73
2022/05/07 10:14:27;;;;;;;10.33;9.43;;;19.50;42.80;;;;;;10361759;28;20236;-73
2022/05/07 10:19:42;;;;;;;9.80;9.00;;;19.70;42.70;;;;;;10363775;28;20230;-72
2022/05/07 10:24:46;;;;;;;9.90;9.10;;;19.80;42.40;;;;;;10359237;28;20256;-74
2022/05/07 10:29:50;;;;;;;9.07;8.37;;;19.90;42.80;;;;;;10358367;28;20233;-72
2022/05/07 10:34:56;;;;;;;9.30;8.60;;;20.00;42.50;;;;;;10364672;28;20321;-73
2022/05/07 10:40:11;;;;;;;8.50;7.80;;;20.10;42.40;;;;;;10365014;28;20226;-73
2022/05/07 10:45:21;;;;;;;9.00;8.30;;;20.20;40.60;;;;;;10363638;28;20256;-72
2022/05/07 10:50:25;;;;;;;7.20;6.70;;;20.40;41.10;;;;;;10364276;28;20226;-73
2022/05/07 10:55:29;;;;;;;8.10;7.30;;;20.50;41.60;;;;;;10363616;28;20832;-73
2022/05/07 11:00:34;;;;;;;7.97;7.37;;;20.70;41.80;;;;;;10356975;28;20266;-73
2022/05/07 11:05:41;;;;;;;7.70;7.10;;;20.90;41.20;;;;;;10364696;28;20234;-73
2022/05/07 11:10:45;;;;;;;10.30;9.30;;;21.00;40.30;;;;;;10358962;28;20336;-74
2022/05/07 11:15:50;;;;;;;11.60;10.70;;;21.10;40.80;;;;;;10355442;28;20242;-75
2022/05/07 11:21:02;;;;;;;11.20;10.40;;;21.20;40.50;;;;;;10352307;28;20230;-74
2022/05/07 11:26:13;;;;;;;12.30;11.33;;;21.10;39.80;;;;;;10355667;28;20233;-74
2022/05/07 11:31:27;;;;;;;12.03;11.13;;;20.90;39.60;;;;;;10361252;28;20325;-74
2022/05/07 11:36:32;;;;;;;11.73;10.87;;;20.70;39.50;;;;;;10356018;28;20233;-74
2022/05/07 11:41:36;;;;;;;11.40;10.60;;;20.50;40.00;;;;;;10358331;28;20222;-74
2022/05/07 11:46:51;;;;;;;11.40;10.60;;;20.40;40.90;;;;;;10358136;28;20768;-74
2022/05/07 11:52:06;;;;;;;10.63;9.83;;;20.30;40.90;;;;;;10356557;28;20230;-74
2022/05/07 11:57:09;;;;;;;10.13;9.43;;;20.20;40.70;;;;;;10357719;28;20222;-75
2022/05/07 12:02:13;;;;;;;11.20;10.40;;;20.20;40.90;;;;;;10355057;28;20230;-75
2022/05/07 12:07:17;;;;;;;10.43;9.63;;;20.10;41.00;;;;;;10365150;28;20301;-74
2022/05/07 12:12:20;;;;;;;10.63;9.80;;;20.20;41.60;;;;;;10361527;28;20236;-74
2022/05/07 12:33:27;;;;;;;10.13;9.40;;;20.60;40.90;;;;;;10356738;28;20238;-76
2022/05/07 12:38:32;;;;;;;10.70;9.90;;;20.70;41.30;;;;;;10358540;28;20792;-76
2022/05/07 12:43:35;;;;;;;10.10;9.40;;;20.70;40.90;;;;;;10357047;28;20310;-74
2022/05/07 12:48:38;;;;;;;9.07;8.17;;;20.80;40.90;;;;;;10355953;28;20229;-74
2022/05/07 12:53:43;;;;;;;10.77;9.87;;;20.80;40.90;;;;;;10360807;28;20230;-74
2022/05/07 12:58:47;;;;;;;11.07;10.17;;;20.80;40.80;;;;;;10362471;28;20248;-74
2022/05/07 13:03:50;;;;;;;11.47;10.67;;;20.70;41.20;;;;;;10357213;28;20245;-73
2022/05/07 13:08:58;;;;;;;10.80;10.00;;;20.70;41.10;;;;;;10360097;28;20225;-73
2022/05/07 13:14:01;;;;;;;10.60;9.83;;;20.60;40.50;;;;;;10364519;28;20698;-74
2022/05/07 13:19:05;;;;;;;8.47;7.87;;;20.50;40.50;;;;;;10357406;28;20238;-73
2022/05/07 13:24:11;;;;;;;8.37;7.67;;;20.40;40.60;;;;;;10364935;28;20222;-73
2022/05/07 13:29:14;;;;;;;7.77;7.17;;;20.40;40.90;;;;;;10365008;28;20249;-73
2022/05/07 13:34:17;;;;;;;6.73;6.23;;;20.30;40.50;;;;;;10362962;28;20234;-72
2022/05/07 13:39:22;;;;;;;6.40;5.90;;;20.20;40.20;;;;;;10369998;28;20218;-73
2022/05/07 13:44:26;;;;;;;7.23;6.53;;;20.10;40.10;;;;;;10367381;28;20616;-72
2022/05/07 13:49:29;;;;;;;7.00;6.40;;;20.00;40.10;;;;;;10366711;28;20349;-72
2022/05/07 13:54:34;;;;;;;7.00;6.30;;;19.90;40.80;;;;;;10366198;28;20226;-73
2022/05/07 13:59:37;;;;;;;6.20;5.70;;;19.80;40.40;;;;;;10360894;28;20229;-73
2022/05/07 14:04:41;;;;;;;5.90;5.50;;;19.70;40.50;;;;;;10357632;28;20240;-72
2022/05/07 14:09:48;;;;;;;6.27;5.87;;;19.60;40.20;;;;;;10358603;28;20318;-72
2022/05/07 14:14:51;;;;;;;6.53;5.93;;;19.40;40.50;;;;;;10359706;28;20241;-72
2022/05/07 14:19:56;;;;;;;6.17;5.50;;;19.30;40.80;;;;;;10359195;28;20423;-72
2022/05/07 14:25:05;;;;;;;6.67;6.17;;;19.40;41.20;;;;;;10354641;28;20226;-73
2022/05/07 14:30:09;;;;;;;7.10;6.50;;;19.50;41.50;;;;;;10361707;28;20672;-73
2022/05/07 14:35:14;;;;;;;7.00;6.40;;;19.60;41.20;;;;;;10360742;28;20338;-72
2022/05/07 14:40:31;;;;;;;6.90;6.40;;;19.70;40.90;;;;;;10357687;28;20221;-73
2022/05/07 14:45:35;;;;;;;7.10;6.40;;;19.80;41.00;;;;;;10362240;28;20230;-73
2022/05/07 14:50:38;;;;;;;7.27;6.67;;;19.80;41.50;;;;;;10362938;28;20225;-73
2022/05/07 14:55:43;;;;;;;7.07;6.47;;;19.80;41.50;;;;;;10361464;28;20741;-73
2022/05/07 15:00:46;;;;;;;7.90;7.23;;;19.80;41.80;;;;;;10361323;28;20838;-72
2022/05/07 15:05:49;;;;;;;8.37;7.67;;;19.80;41.80;;;;;;10362341;28;20695;-73
2022/05/07 15:10:54;;;;;;;8.30;7.70;;;19.70;41.60;;;;;;10345108;28;20225;-74
2022/05/07 15:15:57;;;;;;;7.47;6.87;;;19.60;42.30;;;;;;10349927;28;20241;-74
2022/05/07 15:21:00;;;;;;;8.20;7.50;;;19.60;42.60;;;;;;10353796;28;20226;-72
2022/05/07 15:26:05;;;;;;;7.43;6.83;;;19.50;42.50;;;;;;10351944;28;20226;-72
2022/05/07 15:31:10;;;;;;;7.47;6.87;;;19.60;42.70;;;;;;10354103;28;20223;-73
2022/05/07 15:41:43;;;;;;;5.53;5.13;;;19.80;42.70;;;;;;10359741;28;20275;-74
2022/05/07 15:46:46;;;;;;;5.70;5.30;;;19.90;42.20;;;;;;10362849;28;20226;-74
2022/05/07 15:51:49;;;;;;;5.40;5.00;;;20.00;42.50;;;;;;10363049;28;20226;-74
2022/05/07 15:56:54;;;;;;;4.60;4.30;;;20.20;41.90;;;;;;10361822;28;20222;-74
2022/05/07 16:01:57;;;;;;;4.63;4.33;;;20.40;41.60;;;;;;10362740;28;20250;-74
2022/05/07 16:07:00;;;;;;;4.50;4.20;;;20.60;41.60;;;;;;10358153;28;20245;-74
2022/05/07 16:12:14;;;;;;;4.13;3.93;;;20.70;41.50;;;;;;10357607;28;20592;-74
2022/05/07 16:17:17;;;;;;;3.77;3.57;;;20.80;40.90;;;;;;10360575;28;20230;-74
2022/05/07 16:27:43;;;;;;;3.00;2.80;;;21.00;40.30;;;;;;10363202;28;20232;-74
2022/05/07 16:32:46;;;;;;;7.10;6.40;;;21.10;39.40;;;;;;10357544;28;20226;-73
2022/05/07 16:37:49;;;;;;;4.87;4.47;;;21.20;39.80;;;;;;10360089;28;20313;-74
2022/05/07 16:42:54;;;;;;;3.60;3.40;;;21.20;39.80;;;;;;10360442;28;20237;-74
2022/05/07 16:47:57;;;;;;;3.50;3.30;;;21.10;39.30;;;;;;10361658;28;20237;-74
2022/05/07 16:53:00;;;;;;;4.50;4.20;;;21.00;39.40;;;;;;10361749;28;20234;-74
2022/05/07 16:58:05;;;;;;;3.40;3.20;;;20.90;39.50;;;;;;10361087;28;20248;-73
2022/05/07 17:03:09;;;;;;;4.13;3.83;;;20.80;38.50;;;;;;10362001;28;20226;-74
2022/05/07 17:08:13;;;;;;;5.07;4.57;;;20.80;37.90;;;;;;10362783;28;20221;-74
2022/05/07 17:13:18;;;;;;;4.67;4.27;;;20.70;38.00;;;;;;10356126;28;20222;-74
2022/05/07 17:18:21;;;;;;;4.63;4.23;;;20.50;37.90;;;;;;10361386;28;20219;-74
2022/05/07 17:23:24;;;;;;;6.67;4.73;;;20.30;38.50;;;;;;10359281;28;20719;-73
2022/05/07 17:28:29;;;;;;;5.53;4.53;;;20.10;38.90;;;;;;10362064;28;20241;-74
2022/05/07 17:33:36;;;;;;;10.93;9.83;;;20.00;39.20;;;;;;10358635;28;20238;-74
2022/05/07 17:38:40;;;;;;;9.60;8.60;;;19.90;39.10;;;;;;10354595;28;20218;-74
2022/05/07 17:43:46;;;;;;;8.47;7.77;;;19.80;39.50;;;;;;10357565;28;20226;-74
2022/05/07 17:54:10;;;;;;;7.10;6.50;;;19.50;39.80;;;;;;10358719;28;20226;-74
2022/05/07 17:59:14;;;;;;;8.93;7.90;;;19.40;39.90;;;;;;10356061;28;20233;-74
2022/05/07 18:04:19;;;;;;;9.33;8.43;;;19.30;40.60;;;;;;10354516;28;20218;-75
2022/05/07 18:09:22;;;;;;;7.80;7.20;;;19.20;40.90;;;;;;10357099;28;20229;-74
2022/05/07 18:14:27;;;;;;;6.30;5.80;;;19.20;41.00;;;;;;10355124;28;20223;-75
2022/05/07 18:19:30;;;;;;;5.80;5.30;;;19.10;41.20;;;;;;10356625;28;20230;-75
2022/05/07 18:24:34;;;;;;;7.40;5.53;;;19.10;40.90;;;;;;10355564;28;20226;-75
2022/05/07 18:29:38;;;;;;;6.33;5.83;;;19.10;41.10;;;;;;10356464;28;20234;-74
2022/05/07 18:34:41;;;;;;;5.13;4.77;;;19.10;41.30;;;;;;10356221;28;20230;-75
2022/05/07 18:45:07;;;;;;;5.20;4.80;;;19.10;41.10;;;;;;10354664;28;20714;-75
2022/05/07 18:50:11;;;;;;;5.57;5.07;;;19.00;41.50;;;;;;10353465;28;20227;-76
2022/05/07 19:00:37;;;;;;;5.33;4.90;;;18.90;41.10;;;;;;10346557;28;20244;-75
2022/05/07 19:05:41;;;;;;;4.60;4.20;;;18.90;41.40;;;;;;10349279;28;20241;-76
2022/05/07 19:10:45;;;;;;;5.33;4.93;;;18.90;41.30;;;;;;10353952;28;20229;-76
2022/05/07 19:15:51;;;;;;;4.80;4.50;;;18.90;41.60;;;;;;10350908;28;20614;-75
2022/05/07 19:21:00;;;;;;;5.73;5.33;;;18.90;41.70;;;;;;10352012;28;20230;-76
2022/05/07 19:26:04;;;;;;;5.00;4.70;;;18.90;41.70;;;;;;10345412;28;21096;-73
2022/05/07 19:31:10;;;;;;;5.03;4.63;;;18.90;41.60;;;;;;10342873;28;20718;-73
2022/05/07 19:36:14;;;;;;;5.10;4.70;;;18.90;41.90;;;;;;10347067;28;20226;-73
2022/05/07 19:41:37;;;;;;;5.07;4.77;;;18.90;41.50;;;;;;10343847;28;20233;-74
2022/05/07 19:46:43;;;;;;;5.13;4.83;;;18.80;41.40;;;;;;10346007;28;20226;-73
2022/05/07 19:51:46;;;;;;;4.87;4.57;;;18.70;41.60;;;;;;10345525;28;20314;-74
2022/05/07 19:56:49;;;;;;;4.80;4.40;;;18.70;41.50;;;;;;10350860;28;20241;-74
2022/05/07 20:01:54;;;;;;;4.97;4.60;;;18.60;41.50;;;;;;10350133;28;20770;-74
2022/05/07 20:06:58;;;;;;;5.10;4.70;;;18.60;41.80;;;;;;10349230;28;20227;-74
2022/05/07 20:12:01;;;;;;;6.43;6.00;;;18.50;41.70;;;;;;10348137;28;20240;-74
2022/05/07 20:17:07;;;;;;;6.20;5.70;;;18.50;41.80;;;;;;10349947;28;20263;-74
2022/05/07 20:22:10;;;;;;;5.10;4.80;;;18.50;42.30;;;;;;10354091;28;20236;-74
2022/05/07 20:27:14;;;;;;;6.13;5.73;;;18.40;41.90;;;;;;10352524;28;20222;-74
2022/05/07 20:32:18;;;;;;;6.40;5.90;;;18.40;42.00;;;;;;10354794;28;20242;-73
2022/05/07 20:37:22;;;;;;;7.53;6.93;;;18.40;42.30;;;;;;10358160;28;20230;-73
2022/05/07 20:42:25;;;;;;;7.23;6.63;;;18.40;42.10;;;;;;10355097;28;20591;-73
2022/05/07 20:47:30;;;;;;;7.03;6.17;;;18.40;42.10;;;;;;10355423;28;20245;-74
2022/05/07 20:52:33;;;;;;;5.97;5.57;;;18.30;42.40;;;;;;10356077;28;20230;-74
2022/05/07 20:57:36;;;;;;;6.23;5.83;;;18.30;42.20;;;;;;10357986;28;20245;-74
2022/05/07 21:02:41;;;;;;;6.17;5.57;;;18.20;42.20;;;;;;10357684;28;20233;-73
2022/05/07 21:07:44;;;;;;;6.50;6.00;;;18.30;42.50;;;;;;10355588;28;20241;-75
2022/05/07 21:12:48;;;;;;;5.97;5.57;;;18.20;42.40;;;;;;10354522;28;20258;-73
2022/05/07 21:17:54;;;;;;;6.70;6.00;;;18.20;42.40;;;;;;10355152;28;20708;-73
2022/05/07 21:22:58;;;;;;;5.90;5.50;;;18.20;42.90;;;;;;10356597;28;20238;-73
2022/05/07 21:28:01;;;;;;;6.00;5.60;;;18.20;42.40;;;;;;10352173;28;20237;-74
2022/05/07 21:33:06;;;;;;;5.07;4.67;;;18.20;42.50;;;;;;10359604;28;20257;-74
2022/05/07 21:38:10;;;;;;;6.17;5.77;;;18.20;42.70;;;;;;10359276;28;20230;-74
2022/05/07 21:43:13;;;;;;;5.00;4.70;;;18.10;42.50;;;;;;10357636;28;20226;-74
2022/05/07 21:48:18;;;;;;;6.43;6.03;;;18.10;42.60;;;;;;10363451;28;20750;-74
2022/05/07 21:53:22;;;;;;;7.23;6.53;;;18.10;42.80;;;;;;10362620;28;20305;-74
2022/05/07 21:58:25;;;;;;;6.77;6.13;;;18.10;42.70;;;;;;10360796;28;20253;-74
2022/05/07 22:03:30;;;;;;;8.30;7.70;;;18.10;42.70;;;;;;10360076;28;20242;-73
2022/05/07 22:08:33;;;;;;;6.47;6.07;;;18.10;42.90;;;;;;10358708;28;20245;-73
2022/05/07 22:13:37;;;;;;;7.10;6.60;;;18.00;42.50;;;;;;10359488;28;20722;-74
2022/05/07 22:18:41;;;;;;;6.90;6.40;;;17.90;42.70;;;;;;10359403;28;20226;-73
2022/05/07 22:23:44;;;;;;;6.97;6.37;;;17.90;43.00;;;;;;10355976;28;21057;-73
2022/05/07 22:28:49;;;;;;;6.93;6.30;;;17.90;42.90;;;;;;10356495;28;20313;-74
2022/05/07 22:33:53;;;;;;;5.73;5.33;;;17.80;42.70;;;;;;10357510;28;20952;-74
2022/05/07 22:38:57;;;;;;;6.03;5.60;;;17.80;42.90;;;;;;10354045;28;20900;-73
2022/05/07 22:44:01;;;;;;;6.87;6.37;;;17.80;42.90;;;;;;10357472;28;20234;-74
2022/05/07 22:49:06;;;;;;;7.43;6.83;;;17.80;42.90;;;;;;10355073;28;20226;-73
2022/05/07 22:54:09;;;;;;;6.50;5.90;;;17.70;43.00;;;;;;10355257;28;20321;-74
2022/05/07 22:59:12;;;;;;;6.70;6.13;;;17.70;42.70;;;;;;10353633;28;20214;-73
2022/05/07 23:04:17;;;;;;;5.70;5.20;;;17.60;42.60;;;;;;10356180;28;20230;-73
2022/05/07 23:09:20;;;;;;;6.20;5.70;;;17.60;42.80;;;;;;10355227;28;20600;-74
2022/05/07 23:14:24;;;;;;;4.90;4.50;;;17.60;42.70;;;;;;10357377;28;20491;-73
2022/05/07 23:19:28;;;;;;;5.30;4.50;;;17.50;42.60;;;;;;10357026;28;20742;-74
2022/05/07 23:24:37;;;;;;;5.93;5.43;;;17.50;43.60;;;;;;10351803;28;20226;-74
2022/05/07 23:29:40;;;;;;;6.77;6.27;;;17.50;42.80;;;;;;10353259;28;20235;-74
2022/05/07 23:34:45;;;;;;;4.67;4.37;;;17.50;43.60;;;;;;10356229;28;20230;-73
2022/05/07 23:39:48;;;;;;;5.90;5.17;;;17.50;43.00;;;;;;10357480;28;20230;-74
2022/05/07 23:44:51;;;;;;;5.67;5.27;;;17.40;42.70;;;;;;10356448;28;20317;-74
2022/05/07 23:49:56;;;;;;;6.93;6.43;;;17.40;42.70;;;;;;10357080;28;20241;-74
2022/05/07 23:55:01;;;;;;;6.10;5.70;;;17.40;42.90;;;;;;10359102;28;20238;-74
